sensor_id;sensor_type;location;lat;lon;timestamp;P1;durP1;ratioP1;P2;durP2;ratioP2
6105;SDS011;3083;51.508;7.966;2022-09-01T00:01:26;12.20;;;3.20;;
6105;SDS011;3083;51.508;7.966;2022-09-01T00:03:57;5.93;;;3.30;;
6105;SDS011;3083;51.508;7.966;2022-09-01T00:06:28;6.30;;;3.20;;
6105;SDS011;3083;51.508;7.966;2022-09-01T00:08:57;5.23;;;3.20;;
6105;SDS011;3083;51.508;7.966;2022-09-01T00:11:26;4.90;;;3.03;;
6105;SDS011;3083;51.508;7.966;2022-09-01T00:13:55;7.60;;;3.00;;
6105;SDS011;3083;51.508;7.966;2022-09-01T00:16:22;4.07;;;2.77;;
6105;SDS011;3083;51.508;7.966;2022-09-01T00:18:51;5.33;;;3.37;;
6105;SDS011;3083;51.508;7.966;2022-09-01T00:21:20;5.93;;;2.97;;
6105;SDS011;3083;51.508;7.966;2022-09-01T00:23:49;5.93;;;3.13;;
6105;SDS011;3083;51.508;7.966;2022-09-01T00:26:17;5.03;;;3.03;;
6105;SDS011;3083;51.508;7.966;2022-09-01T00:28:44;4.93;;;2.83;;
6105;SDS011;3083;51.508;7.966;2022-09-01T00:31:11;5.20;;;3.10;;
6105;SDS011;3083;51.508;7.966;2022-09-01T00:33:38;5.23;;;3.00;;
6105;SDS011;3083;51.508;7.966;2022-09-01T00:36:07;5.83;;;2.77;;
6105;SDS011;3083;51.508;7.966;2022-09-01T00:38:34;4.80;;;2.80;;
6105;SDS011;3083;51.508;7.966;2022-09-01T00:41:02;4.63;;;3.17;;
6105;SDS011;3083;51.508;7.966;2022-09-01T00:43:35;5.30;;;3.00;;
6105;SDS011;3083;51.508;7.966;2022-09-01T00:46:04;5.40;;;3.23;;
6105;SDS011;3083;51.508;7.966;2022-09-01T00:48:33;5.70;;;3.10;;
6105;SDS011;3083;51.508;7.966;2022-09-01T00:51:00;7.00;;;3.20;;
6105;SDS011;3083;51.508;7.966;2022-09-01T00:53:29;5.30;;;3.30;;
6105;SDS011;3083;51.508;7.966;2022-09-01T00:55:57;5.60;;;3.37;;
6105;SDS011;3083;51.508;7.966;2022-09-01T00:58:25;4.80;;;2.87;;
6105;SDS011;3083;51.508;7.966;2022-09-01T01:00:52;6.53;;;3.27;;
6105;SDS011;3083;51.508;7.966;2022-09-01T01:03:19;7.20;;;3.20;;
6105;SDS011;3083;51.508;7.966;2022-09-01T01:05:48;4.30;;;2.87;;
6105;SDS011;3083;51.508;7.966;2022-09-01T01:08:19;4.53;;;2.77;;
6105;SDS011;3083;51.508;7.966;2022-09-01T01:10:59;4.93;;;3.03;;
6105;SDS011;3083;51.508;7.966;2022-09-01T01:13:27;8.83;;;2.97;;
6105;SDS011;3083;51.508;7.966;2022-09-01T01:15:57;4.97;;;2.80;;
6105;SDS011;3083;51.508;7.966;2022-09-01T01:18:24;5.20;;;3.40;;
6105;SDS011;3083;51.508;7.966;2022-09-01T01:20:56;4.13;;;2.80;;
6105;SDS011;3083;51.508;7.966;2022-09-01T01:23:44;6.13;;;3.20;;
6105;SDS011;3083;51.508;7.966;2022-09-01T01:26:19;5.13;;;3.07;;
6105;SDS011;3083;51.508;7.966;2022-09-01T01:28:46;4.67;;;2.50;;
6105;SDS011;3083;51.508;7.966;2022-09-01T01:31:13;4.57;;;2.80;;
6105;SDS011;3083;51.508;7.966;2022-09-01T01:33:43;7.33;;;3.13;;
6105;SDS011;3083;51.508;7.966;2022-09-01T01:36:13;3.70;;;2.63;;
6105;SDS011;3083;51.508;7.966;2022-09-01T01:38:42;4.87;;;3.20;;
6105;SDS011;3083;51.508;7.966;2022-09-01T01:41:11;4.57;;;3.00;;
6105;SDS011;3083;51.508;7.966;2022-09-01T01:43:41;5.20;;;3.10;;
6105;SDS011;3083;51.508;7.966;2022-09-01T01:46:08;4.70;;;2.93;;
6105;SDS011;3083;51.508;7.966;2022-09-01T01:48:39;5.80;;;3.50;;
6105;SDS011;3083;51.508;7.966;2022-09-01T01:51:07;5.53;;;3.40;;
6105;SDS011;3083;51.508;7.966;2022-09-01T01:53:36;6.30;;;3.70;;
6105;SDS011;3083;51.508;7.966;2022-09-01T01:56:03;5.57;;;3.10;;
6105;SDS011;3083;51.508;7.966;2022-09-01T01:58:33;9.67;;;3.33;;
6105;SDS011;3083;51.508;7.966;2022-09-01T02:01:01;5.20;;;3.40;;
6105;SDS011;3083;51.508;7.966;2022-09-01T02:03:30;7.47;;;3.23;;
6105;SDS011;3083;51.508;7.966;2022-09-01T02:06:03;7.20;;;3.40;;
6105;SDS011;3083;51.508;7.966;2022-09-01T02:08:34;4.40;;;2.90;;
6105;SDS011;3083;51.508;7.966;2022-09-01T02:11:02;5.17;;;3.20;;
6105;SDS011;3083;51.508;7.966;2022-09-01T02:13:30;5.30;;;3.70;;
6105;SDS011;3083;51.508;7.966;2022-09-01T02:15:59;7.93;;;3.97;;
6105;SDS011;3083;51.508;7.966;2022-09-01T02:18:32;6.13;;;3.53;;
6105;SDS011;3083;51.508;7.966;2022-09-01T02:21:01;6.30;;;3.50;;
6105;SDS011;3083;51.508;7.966;2022-09-01T02:23:32;5.40;;;3.70;;
6105;SDS011;3083;51.508;7.966;2022-09-01T02:25:59;5.30;;;3.47;;
6105;SDS011;3083;51.508;7.966;2022-09-01T02:28:26;4.77;;;3.33;;
6105;SDS011;3083;51.508;7.966;2022-09-01T02:30:56;5.90;;;3.40;;
6105;SDS011;3083;51.508;7.966;2022-09-01T02:33:25;6.10;;;3.47;;
6105;SDS011;3083;51.508;7.966;2022-09-01T02:35:53;8.80;;;3.80;;
6105;SDS011;3083;51.508;7.966;2022-09-01T02:38:22;5.47;;;3.50;;
6105;SDS011;3083;51.508;7.966;2022-09-01T02:40:53;5.93;;;3.00;;
6105;SDS011;3083;51.508;7.966;2022-09-01T02:43:23;4.63;;;3.23;;
6105;SDS011;3083;51.508;7.966;2022-09-01T02:45:53;4.83;;;3.43;;
6105;SDS011;3083;51.508;7.966;2022-09-01T02:48:25;5.13;;;3.47;;
6105;SDS011;3083;51.508;7.966;2022-09-01T02:50:56;5.53;;;3.13;;
6105;SDS011;3083;51.508;7.966;2022-09-01T02:53:23;6.90;;;3.63;;
6105;SDS011;3083;51.508;7.966;2022-09-01T02:55:50;6.53;;;3.30;;
6105;SDS011;3083;51.508;7.966;2022-09-01T02:58:17;9.10;;;3.40;;
6105;SDS011;3083;51.508;7.966;2022-09-01T03:00:45;7.00;;;3.70;;
6105;SDS011;3083;51.508;7.966;2022-09-01T03:03:18;5.93;;;3.60;;
6105;SDS011;3083;51.508;7.966;2022-09-01T03:05:47;7.00;;;3.60;;
6105;SDS011;3083;51.508;7.966;2022-09-01T03:08:20;6.20;;;3.57;;
6105;SDS011;3083;51.508;7.966;2022-09-01T03:10:49;6.70;;;3.60;;
6105;SDS011;3083;51.508;7.966;2022-09-01T03:13:19;6.23;;;3.67;;
6105;SDS011;3083;51.508;7.966;2022-09-01T03:15:48;6.80;;;4.40;;
6105;SDS011;3083;51.508;7.966;2022-09-01T03:18:16;5.70;;;3.53;;
6105;SDS011;3083;51.508;7.966;2022-09-01T03:20:43;9.13;;;3.87;;
6105;SDS011;3083;51.508;7.966;2022-09-01T03:23:14;7.70;;;3.80;;
6105;SDS011;3083;51.508;7.966;2022-09-01T03:25:42;8.27;;;4.13;;
6105;SDS011;3083;51.508;7.966;2022-09-01T03:28:11;5.93;;;3.90;;
6105;SDS011;3083;51.508;7.966;2022-09-01T03:30:39;5.33;;;3.80;;
6105;SDS011;3083;51.508;7.966;2022-09-01T03:33:11;5.83;;;3.70;;
6105;SDS011;3083;51.508;7.966;2022-09-01T03:35:38;5.97;;;3.87;;
6105;SDS011;3083;51.508;7.966;2022-09-01T03:38:06;9.87;;;3.80;;
6105;SDS011;3083;51.508;7.966;2022-09-01T03:40:34;7.13;;;3.63;;
6105;SDS011;3083;51.508;7.966;2022-09-01T03:43:02;6.53;;;3.77;;
6105;SDS011;3083;51.508;7.966;2022-09-01T03:45:31;5.00;;;3.63;;
6105;SDS011;3083;51.508;7.966;2022-09-01T03:47:59;5.07;;;3.50;;
6105;SDS011;3083;51.508;7.966;2022-09-01T03:50:28;7.67;;;3.80;;
6105;SDS011;3083;51.508;7.966;2022-09-01T03:52:56;5.77;;;3.47;;
6105;SDS011;3083;51.508;7.966;2022-09-01T03:55:26;7.50;;;5.40;;
6105;SDS011;3083;51.508;7.966;2022-09-01T03:57:58;5.53;;;3.40;;
6105;SDS011;3083;51.508;7.966;2022-09-01T04:00:27;5.13;;;3.20;;
6105;SDS011;3083;51.508;7.966;2022-09-01T04:02:57;7.23;;;3.87;;
6105;SDS011;3083;51.508;7.966;2022-09-01T04:05:26;6.00;;;3.50;;
6105;SDS011;3083;51.508;7.966;2022-09-01T04:07:54;6.33;;;4.20;;
6105;SDS011;3083;51.508;7.966;2022-09-01T04:10:22;8.03;;;4.27;;
6105;SDS011;3083;51.508;7.966;2022-09-01T04:12:49;7.73;;;4.00;;
6105;SDS011;3083;51.508;7.966;2022-09-01T04:15:18;5.80;;;3.90;;
6105;SDS011;3083;51.508;7.966;2022-09-01T04:17:45;5.30;;;3.60;;
6105;SDS011;3083;51.508;7.966;2022-09-01T04:20:34;5.90;;;3.60;;
6105;SDS011;3083;51.508;7.966;2022-09-01T04:23:12;5.83;;;3.30;;
6105;SDS011;3083;51.508;7.966;2022-09-01T04:25:44;8.10;;;3.10;;
6105;SDS011;3083;51.508;7.966;2022-09-01T04:28:13;5.60;;;3.47;;
6105;SDS011;3083;51.508;7.966;2022-09-01T04:30:48;7.07;;;3.47;;
6105;SDS011;3083;51.508;7.966;2022-09-01T04:33:16;6.33;;;3.50;;
6105;SDS011;3083;51.508;7.966;2022-09-01T04:35:43;5.10;;;3.40;;
6105;SDS011;3083;51.508;7.966;2022-09-01T04:38:10;5.67;;;3.70;;
6105;SDS011;3083;51.508;7.966;2022-09-01T04:40:40;5.80;;;4.10;;
6105;SDS011;3083;51.508;7.966;2022-09-01T04:43:07;5.20;;;3.30;;
6105;SDS011;3083;51.508;7.966;2022-09-01T04:45:35;7.57;;;3.67;;
6105;SDS011;3083;51.508;7.966;2022-09-01T04:48:04;5.20;;;3.53;;
6105;SDS011;3083;51.508;7.966;2022-09-01T04:50:31;5.00;;;3.70;;
6105;SDS011;3083;51.508;7.966;2022-09-01T04:52:59;6.40;;;3.40;;
6105;SDS011;3083;51.508;7.966;2022-09-01T04:55:27;7.17;;;4.00;;
6105;SDS011;3083;51.508;7.966;2022-09-01T04:57:55;5.90;;;4.07;;
6105;SDS011;3083;51.508;7.966;2022-09-01T05:00:24;9.40;;;4.20;;
6105;SDS011;3083;51.508;7.966;2022-09-01T05:02:57;6.70;;;4.40;;
6105;SDS011;3083;51.508;7.966;2022-09-01T05:05:35;7.40;;;4.63;;
6105;SDS011;3083;51.508;7.966;2022-09-01T05:08:06;7.63;;;4.70;;
6105;SDS011;3083;51.508;7.966;2022-09-01T05:10:38;7.23;;;4.57;;
6105;SDS011;3083;51.508;7.966;2022-09-01T05:13:07;7.57;;;5.10;;
6105;SDS011;3083;51.508;7.966;2022-09-01T05:15:36;6.27;;;4.30;;
6105;SDS011;3083;51.508;7.966;2022-09-01T05:18:04;8.60;;;4.67;;
6105;SDS011;3083;51.508;7.966;2022-09-01T05:20:37;8.77;;;4.47;;
6105;SDS011;3083;51.508;7.966;2022-09-01T05:23:06;7.90;;;5.10;;
6105;SDS011;3083;51.508;7.966;2022-09-01T05:25:37;11.90;;;5.50;;
6105;SDS011;3083;51.508;7.966;2022-09-01T05:28:07;8.37;;;5.77;;
6105;SDS011;3083;51.508;7.966;2022-09-01T05:30:37;8.37;;;5.70;;
6105;SDS011;3083;51.508;7.966;2022-09-01T05:33:05;7.80;;;5.40;;
6105;SDS011;3083;51.508;7.966;2022-09-01T05:35:38;8.03;;;5.20;;
6105;SDS011;3083;51.508;7.966;2022-09-01T05:38:09;9.10;;;5.77;;
6105;SDS011;3083;51.508;7.966;2022-09-01T05:40:39;8.80;;;5.40;;
6105;SDS011;3083;51.508;7.966;2022-09-01T05:43:08;6.83;;;4.80;;
6105;SDS011;3083;51.508;7.966;2022-09-01T05:45:37;9.97;;;4.50;;
6105;SDS011;3083;51.508;7.966;2022-09-01T05:48:08;7.17;;;4.53;;
6105;SDS011;3083;51.508;7.966;2022-09-01T05:50:39;7.63;;;4.70;;
6105;SDS011;3083;51.508;7.966;2022-09-01T05:53:07;8.10;;;4.63;;
6105;SDS011;3083;51.508;7.966;2022-09-01T05:55:40;6.53;;;4.73;;
6105;SDS011;3083;51.508;7.966;2022-09-01T05:58:08;5.37;;;4.10;;
6105;SDS011;3083;51.508;7.966;2022-09-01T06:00:37;7.23;;;4.03;;
6105;SDS011;3083;51.508;7.966;2022-09-01T06:03:07;5.33;;;3.57;;
6105;SDS011;3083;51.508;7.966;2022-09-01T06:05:35;7.20;;;3.83;;
6105;SDS011;3083;51.508;7.966;2022-09-01T06:08:04;6.43;;;3.37;;
6105;SDS011;3083;51.508;7.966;2022-09-01T06:10:32;8.53;;;3.10;;
6105;SDS011;3083;51.508;7.966;2022-09-01T06:13:04;5.80;;;3.37;;
6105;SDS011;3083;51.508;7.966;2022-09-01T06:15:32;4.83;;;3.40;;
6105;SDS011;3083;51.508;7.966;2022-09-01T06:18:03;5.70;;;3.47;;
6105;SDS011;3083;51.508;7.966;2022-09-01T06:20:31;6.03;;;3.90;;
6105;SDS011;3083;51.508;7.966;2022-09-01T06:22:58;5.77;;;3.20;;
6105;SDS011;3083;51.508;7.966;2022-09-01T06:25:27;7.20;;;4.33;;
6105;SDS011;3083;51.508;7.966;2022-09-01T06:27:55;5.60;;;3.80;;
6105;SDS011;3083;51.508;7.966;2022-09-01T06:30:22;7.03;;;3.10;;
6105;SDS011;3083;51.508;7.966;2022-09-01T06:32:50;5.83;;;3.30;;
6105;SDS011;3083;51.508;7.966;2022-09-01T06:35:18;5.13;;;3.47;;
6105;SDS011;3083;51.508;7.966;2022-09-01T06:37:45;5.23;;;3.70;;
6105;SDS011;3083;51.508;7.966;2022-09-01T06:40:14;5.20;;;3.70;;
6105;SDS011;3083;51.508;7.966;2022-09-01T06:42:44;5.37;;;3.50;;
6105;SDS011;3083;51.508;7.966;2022-09-01T06:45:12;6.23;;;3.50;;
6105;SDS011;3083;51.508;7.966;2022-09-01T06:47:40;8.90;;;3.80;;
6105;SDS011;3083;51.508;7.966;2022-09-01T06:50:09;7.00;;;3.80;;
6105;SDS011;3083;51.508;7.966;2022-09-01T06:52:38;5.50;;;3.73;;
6105;SDS011;3083;51.508;7.966;2022-09-01T06:55:06;9.47;;;4.03;;
6105;SDS011;3083;51.508;7.966;2022-09-01T06:57:34;6.37;;;3.90;;
6105;SDS011;3083;51.508;7.966;2022-09-01T07:00:04;6.70;;;2.97;;
6105;SDS011;3083;51.508;7.966;2022-09-01T07:02:41;4.97;;;3.00;;
6105;SDS011;3083;51.508;7.966;2022-09-01T07:05:09;7.20;;;3.43;;
6105;SDS011;3083;51.508;7.966;2022-09-01T07:07:41;5.03;;;3.17;;
6105;SDS011;3083;51.508;7.966;2022-09-01T07:10:15;7.73;;;3.03;;
6105;SDS011;3083;51.508;7.966;2022-09-01T07:12:46;4.10;;;2.50;;
6105;SDS011;3083;51.508;7.966;2022-09-01T07:15:15;4.37;;;2.23;;
6105;SDS011;3083;51.508;7.966;2022-09-01T07:17:45;5.20;;;3.03;;
6105;SDS011;3083;51.508;7.966;2022-09-01T07:20:14;6.57;;;2.50;;
6105;SDS011;3083;51.508;7.966;2022-09-01T07:22:41;3.87;;;2.80;;
6105;SDS011;3083;51.508;7.966;2022-09-01T07:25:09;3.80;;;2.60;;
6105;SDS011;3083;51.508;7.966;2022-09-01T07:27:36;6.13;;;3.10;;
6105;SDS011;3083;51.508;7.966;2022-09-01T07:30:04;5.57;;;3.00;;
6105;SDS011;3083;51.508;7.966;2022-09-01T07:32:35;7.53;;;3.80;;
6105;SDS011;3083;51.508;7.966;2022-09-01T07:35:05;6.13;;;3.00;;
6105;SDS011;3083;51.508;7.966;2022-09-01T07:37:33;4.10;;;2.83;;
6105;SDS011;3083;51.508;7.966;2022-09-01T07:40:03;7.30;;;3.27;;
6105;SDS011;3083;51.508;7.966;2022-09-01T07:42:32;8.37;;;3.20;;
6105;SDS011;3083;51.508;7.966;2022-09-01T07:44:59;5.47;;;3.00;;
6105;SDS011;3083;51.508;7.966;2022-09-01T07:47:35;8.60;;;3.00;;
6105;SDS011;3083;51.508;7.966;2022-09-01T07:50:03;5.07;;;2.60;;
6105;SDS011;3083;51.508;7.966;2022-09-01T07:52:33;7.67;;;2.53;;
6105;SDS011;3083;51.508;7.966;2022-09-01T07:55:06;5.63;;;2.67;;
6105;SDS011;3083;51.508;7.966;2022-09-01T07:57:35;6.50;;;3.03;;
6105;SDS011;3083;51.508;7.966;2022-09-01T08:00:03;8.20;;;3.00;;
6105;SDS011;3083;51.508;7.966;2022-09-01T08:02:32;7.40;;;3.17;;
6105;SDS011;3083;51.508;7.966;2022-09-01T08:05:02;4.33;;;2.43;;
6105;SDS011;3083;51.508;7.966;2022-09-01T08:07:31;9.57;;;3.10;;
6105;SDS011;3083;51.508;7.966;2022-09-01T08:09:58;6.10;;;3.07;;
6105;SDS011;3083;51.508;7.966;2022-09-01T08:12:25;5.40;;;2.90;;
6105;SDS011;3083;51.508;7.966;2022-09-01T08:14:52;7.00;;;2.90;;
6105;SDS011;3083;51.508;7.966;2022-09-01T08:17:19;4.73;;;2.70;;
6105;SDS011;3083;51.508;7.966;2022-09-01T08:19:46;6.30;;;3.00;;
6105;SDS011;3083;51.508;7.966;2022-09-01T08:22:15;7.00;;;2.90;;
6105;SDS011;3083;51.508;7.966;2022-09-01T08:24:45;11.13;;;2.80;;
6105;SDS011;3083;51.508;7.966;2022-09-01T08:27:12;4.73;;;2.63;;
6105;SDS011;3083;51.508;7.966;2022-09-01T08:29:39;7.20;;;3.40;;
6105;SDS011;3083;51.508;7.966;2022-09-01T08:32:07;5.63;;;2.80;;
6105;SDS011;3083;51.508;7.966;2022-09-01T08:34:35;3.97;;;2.70;;
6105;SDS011;3083;51.508;7.966;2022-09-01T08:37:02;7.30;;;2.90;;
6105;SDS011;3083;51.508;7.966;2022-09-01T08:39:31;5.80;;;2.90;;
6105;SDS011;3083;51.508;7.966;2022-09-01T08:42:00;7.60;;;2.50;;
6105;SDS011;3083;51.508;7.966;2022-09-01T08:44:35;4.20;;;2.80;;
6105;SDS011;3083;51.508;7.966;2022-09-01T08:47:10;9.10;;;2.60;;
6105;SDS011;3083;51.508;7.966;2022-09-01T08:49:39;6.27;;;2.57;;
6105;SDS011;3083;51.508;7.966;2022-09-01T08:52:12;5.90;;;2.60;;
6105;SDS011;3083;51.508;7.966;2022-09-01T08:54:46;8.03;;;2.73;;
6105;SDS011;3083;51.508;7.966;2022-09-01T08:57:16;8.50;;;2.60;;
6105;SDS011;3083;51.508;7.966;2022-09-01T08:59:45;7.60;;;2.80;;
6105;SDS011;3083;51.508;7.966;2022-09-01T09:02:18;4.10;;;2.60;;
6105;SDS011;3083;51.508;7.966;2022-09-01T09:04:54;6.43;;;2.70;;
6105;SDS011;3083;51.508;7.966;2022-09-01T09:07:32;9.93;;;2.80;;
6105;SDS011;3083;51.508;7.966;2022-09-01T09:10:10;5.47;;;2.73;;
6105;SDS011;3083;51.508;7.966;2022-09-01T09:12:48;5.67;;;2.80;;
6105;SDS011;3083;51.508;7.966;2022-09-01T09:15:25;5.90;;;2.70;;
6105;SDS011;3083;51.508;7.966;2022-09-01T09:18:00;8.60;;;2.77;;
6105;SDS011;3083;51.508;7.966;2022-09-01T09:20:34;3.67;;;2.57;;
6105;SDS011;3083;51.508;7.966;2022-09-01T09:23:03;5.60;;;2.77;;
6105;SDS011;3083;51.508;7.966;2022-09-01T09:25:38;4.03;;;2.40;;
6105;SDS011;3083;51.508;7.966;2022-09-01T09:28:05;4.10;;;2.70;;
6105;SDS011;3083;51.508;7.966;2022-09-01T09:30:33;5.33;;;3.23;;
6105;SDS011;3083;51.508;7.966;2022-09-01T09:33:01;3.50;;;2.60;;
6105;SDS011;3083;51.508;7.966;2022-09-01T09:35:31;4.70;;;2.80;;
6105;SDS011;3083;51.508;7.966;2022-09-01T09:38:14;6.20;;;2.50;;
6105;SDS011;3083;51.508;7.966;2022-09-01T09:40:58;4.77;;;2.37;;
6105;SDS011;3083;51.508;7.966;2022-09-01T09:43:27;3.90;;;2.37;;
6105;SDS011;3083;51.508;7.966;2022-09-01T09:49:05;3.40;;;2.40;;
6105;SDS011;3083;51.508;7.966;2022-09-01T09:51:35;3.77;;;2.60;;
6105;SDS011;3083;51.508;7.966;2022-09-01T09:54:09;3.90;;;2.80;;
6105;SDS011;3083;51.508;7.966;2022-09-01T09:56:40;3.90;;;2.70;;
6105;SDS011;3083;51.508;7.966;2022-09-01T09:59:22;4.87;;;2.80;;
6105;SDS011;3083;51.508;7.966;2022-09-01T10:01:55;5.63;;;2.60;;
6105;SDS011;3083;51.508;7.966;2022-09-01T10:04:30;6.13;;;2.57;;
6105;SDS011;3083;51.508;7.966;2022-09-01T10:07:00;5.60;;;2.23;;
6105;SDS011;3083;51.508;7.966;2022-09-01T10:09:34;4.63;;;2.63;;
6105;SDS011;3083;51.508;7.966;2022-09-01T10:12:04;4.07;;;2.70;;
6105;SDS011;3083;51.508;7.966;2022-09-01T10:14:34;4.07;;;2.60;;
6105;SDS011;3083;51.508;7.966;2022-09-01T10:17:08;3.93;;;2.30;;
6105;SDS011;3083;51.508;7.966;2022-09-01T10:19:46;3.93;;;2.07;;
6105;SDS011;3083;51.508;7.966;2022-09-01T10:22:16;4.67;;;2.60;;
6105;SDS011;3083;51.508;7.966;2022-09-01T10:24:43;3.20;;;2.20;;
6105;SDS011;3083;51.508;7.966;2022-09-01T10:27:19;10.67;;;2.43;;
6105;SDS011;3083;51.508;7.966;2022-09-01T10:29:50;5.17;;;2.30;;
6105;SDS011;3083;51.508;7.966;2022-09-01T10:32:23;3.57;;;2.20;;
6105;SDS011;3083;51.508;7.966;2022-09-01T10:34:53;4.77;;;2.23;;
6105;SDS011;3083;51.508;7.966;2022-09-01T10:37:20;3.90;;;2.53;;
6105;SDS011;3083;51.508;7.966;2022-09-01T10:42:41;3.90;;;2.23;;
6105;SDS011;3083;51.508;7.966;2022-09-01T10:45:17;7.00;;;2.20;;
6105;SDS011;3083;51.508;7.966;2022-09-01T10:47:54;3.40;;;2.23;;
6105;SDS011;3083;51.508;7.966;2022-09-01T10:50:25;4.60;;;2.33;;
6105;SDS011;3083;51.508;7.966;2022-09-01T10:53:00;3.50;;;2.10;;
6105;SDS011;3083;51.508;7.966;2022-09-01T11:08:39;3.40;;;2.10;;
6105;SDS011;3083;51.508;7.966;2022-09-01T11:11:09;3.90;;;2.00;;
6105;SDS011;3083;51.508;7.966;2022-09-01T11:13:48;4.10;;;2.20;;
6105;SDS011;3083;51.508;7.966;2022-09-01T11:16:28;3.53;;;2.33;;
6105;SDS011;3083;51.508;7.966;2022-09-01T11:22:08;7.50;;;2.10;;
6105;SDS011;3083;51.508;7.966;2022-09-01T11:24:51;3.83;;;2.10;;
6105;SDS011;3083;51.508;7.966;2022-09-01T11:27:57;3.73;;;2.03;;
6105;SDS011;3083;51.508;7.966;2022-09-01T11:30:35;3.40;;;2.10;;
6105;SDS011;3083;51.508;7.966;2022-09-01T11:33:18;4.17;;;2.10;;
6105;SDS011;3083;51.508;7.966;2022-09-01T11:35:58;4.00;;;2.20;;
6105;SDS011;3083;51.508;7.966;2022-09-01T11:38:26;3.80;;;2.10;;
6105;SDS011;3083;51.508;7.966;2022-09-01T11:40:58;3.30;;;1.93;;
6105;SDS011;3083;51.508;7.966;2022-09-01T11:43:25;4.90;;;2.37;;
6105;SDS011;3083;51.508;7.966;2022-09-01T11:45:57;5.67;;;1.83;;
6105;SDS011;3083;51.508;7.966;2022-09-01T11:48:32;4.50;;;2.27;;
6105;SDS011;3083;51.508;7.966;2022-09-01T11:51:00;5.63;;;2.20;;
6105;SDS011;3083;51.508;7.966;2022-09-01T11:53:28;4.80;;;2.30;;
6105;SDS011;3083;51.508;7.966;2022-09-01T11:55:56;3.20;;;2.00;;
6105;SDS011;3083;51.508;7.966;2022-09-01T11:58:40;4.00;;;1.93;;
6105;SDS011;3083;51.508;7.966;2022-09-01T12:01:12;3.33;;;2.00;;
6105;SDS011;3083;51.508;7.966;2022-09-01T12:03:42;3.57;;;2.20;;
6105;SDS011;3083;51.508;7.966;2022-09-01T12:06:10;4.13;;;1.90;;
6105;SDS011;3083;51.508;7.966;2022-09-01T12:08:49;3.50;;;2.00;;
6105;SDS011;3083;51.508;7.966;2022-09-01T12:11:20;4.87;;;2.27;;
6105;SDS011;3083;51.508;7.966;2022-09-01T12:13:59;3.40;;;1.90;;
6105;SDS011;3083;51.508;7.966;2022-09-01T12:16:28;3.80;;;1.90;;
6105;SDS011;3083;51.508;7.966;2022-09-01T12:18:58;6.30;;;1.90;;
6105;SDS011;3083;51.508;7.966;2022-09-01T12:21:26;3.30;;;2.00;;
6105;SDS011;3083;51.508;7.966;2022-09-01T12:24:08;2.93;;;1.70;;
6105;SDS011;3083;51.508;7.966;2022-09-01T12:26:40;3.67;;;2.20;;
6105;SDS011;3083;51.508;7.966;2022-09-01T12:29:08;5.33;;;1.90;;
6105;SDS011;3083;51.508;7.966;2022-09-01T12:31:38;4.17;;;2.37;;
6105;SDS011;3083;51.508;7.966;2022-09-01T12:34:20;5.50;;;2.03;;
6105;SDS011;3083;51.508;7.966;2022-09-01T12:37:04;4.13;;;1.80;;
6105;SDS011;3083;51.508;7.966;2022-09-01T12:39:38;4.20;;;2.17;;
6105;SDS011;3083;51.508;7.966;2022-09-01T12:42:09;4.10;;;1.87;;
6105;SDS011;3083;51.508;7.966;2022-09-01T12:44:49;5.00;;;2.00;;
6105;SDS011;3083;51.508;7.966;2022-09-01T12:53:19;2.90;;;1.90;;
6105;SDS011;3083;51.508;7.966;2022-09-01T12:55:56;3.10;;;2.00;;
6105;SDS011;3083;51.508;7.966;2022-09-01T12:58:28;3.30;;;2.10;;
6105;SDS011;3083;51.508;7.966;2022-09-01T13:00:58;12.10;;;2.00;;
6105;SDS011;3083;51.508;7.966;2022-09-01T13:03:28;7.43;;;2.10;;
6105;SDS011;3083;51.508;7.966;2022-09-01T13:05:57;5.90;;;1.80;;
6105;SDS011;3083;51.508;7.966;2022-09-01T13:08:25;3.40;;;2.20;;
6105;SDS011;3083;51.508;7.966;2022-09-01T13:10:55;4.83;;;2.10;;
6105;SDS011;3083;51.508;7.966;2022-09-01T13:13:23;3.60;;;2.00;;
6105;SDS011;3083;51.508;7.966;2022-09-01T13:15:54;4.23;;;2.17;;
6105;SDS011;3083;51.508;7.966;2022-09-01T13:18:24;4.20;;;1.90;;
6105;SDS011;3083;51.508;7.966;2022-09-01T13:20:51;3.10;;;1.80;;
6105;SDS011;3083;51.508;7.966;2022-09-01T13:23:19;3.90;;;2.10;;
6105;SDS011;3083;51.508;7.966;2022-09-01T13:25:47;6.93;;;2.07;;
6105;SDS011;3083;51.508;7.966;2022-09-01T13:28:15;4.30;;;1.77;;
6105;SDS011;3083;51.508;7.966;2022-09-01T13:30:42;4.30;;;1.77;;
6105;SDS011;3083;51.508;7.966;2022-09-01T13:33:14;4.17;;;2.00;;
6105;SDS011;3083;51.508;7.966;2022-09-01T13:35:41;3.83;;;1.70;;
6105;SDS011;3083;51.508;7.966;2022-09-01T13:38:08;3.97;;;1.83;;
6105;SDS011;3083;51.508;7.966;2022-09-01T13:40:35;4.00;;;2.07;;
6105;SDS011;3083;51.508;7.966;2022-09-01T13:43:02;4.20;;;2.00;;
6105;SDS011;3083;51.508;7.966;2022-09-01T13:45:29;8.50;;;2.10;;
6105;SDS011;3083;51.508;7.966;2022-09-01T13:47:57;6.30;;;2.20;;
6105;SDS011;3083;51.508;7.966;2022-09-01T13:50:26;4.27;;;1.90;;
6105;SDS011;3083;51.508;7.966;2022-09-01T13:52:54;4.47;;;2.03;;
6105;SDS011;3083;51.508;7.966;2022-09-01T13:55:22;3.90;;;1.90;;
6105;SDS011;3083;51.508;7.966;2022-09-01T13:57:51;4.37;;;2.00;;
6105;SDS011;3083;51.508;7.966;2022-09-01T14:00:19;3.20;;;1.67;;
6105;SDS011;3083;51.508;7.966;2022-09-01T14:02:48;3.90;;;1.90;;
6105;SDS011;3083;51.508;7.966;2022-09-01T14:05:19;6.80;;;1.93;;
6105;SDS011;3083;51.508;7.966;2022-09-01T14:07:49;5.00;;;2.10;;
6105;SDS011;3083;51.508;7.966;2022-09-01T14:10:16;3.63;;;1.90;;
6105;SDS011;3083;51.508;7.966;2022-09-01T14:12:44;4.73;;;2.00;;
6105;SDS011;3083;51.508;7.966;2022-09-01T14:15:12;4.00;;;2.00;;
6105;SDS011;3083;51.508;7.966;2022-09-01T14:17:40;3.50;;;2.03;;
6105;SDS011;3083;51.508;7.966;2022-09-01T14:20:09;3.97;;;2.20;;
6105;SDS011;3083;51.508;7.966;2022-09-01T14:22:37;3.63;;;2.20;;
6105;SDS011;3083;51.508;7.966;2022-09-01T14:25:07;3.47;;;2.10;;
6105;SDS011;3083;51.508;7.966;2022-09-01T14:27:34;3.70;;;2.10;;
6105;SDS011;3083;51.508;7.966;2022-09-01T14:30:02;3.30;;;2.20;;
6105;SDS011;3083;51.508;7.966;2022-09-01T14:32:31;4.77;;;1.83;;
6105;SDS011;3083;51.508;7.966;2022-09-01T14:34:58;3.67;;;1.97;;
6105;SDS011;3083;51.508;7.966;2022-09-01T14:37:26;4.47;;;2.20;;
6105;SDS011;3083;51.508;7.966;2022-09-01T14:39:53;4.50;;;1.90;;
6105;SDS011;3083;51.508;7.966;2022-09-01T14:42:23;2.90;;;1.80;;
6105;SDS011;3083;51.508;7.966;2022-09-01T14:44:52;4.20;;;2.03;;
6105;SDS011;3083;51.508;7.966;2022-09-01T14:47:20;4.73;;;1.87;;
6105;SDS011;3083;51.508;7.966;2022-09-01T14:49:50;3.30;;;1.87;;
6105;SDS011;3083;51.508;7.966;2022-09-01T14:52:17;3.00;;;1.93;;
6105;SDS011;3083;51.508;7.966;2022-09-01T14:54:46;5.80;;;2.10;;
6105;SDS011;3083;51.508;7.966;2022-09-01T14:57:13;3.37;;;2.00;;
6105;SDS011;3083;51.508;7.966;2022-09-01T14:59:41;3.67;;;2.10;;
6105;SDS011;3083;51.508;7.966;2022-09-01T15:02:09;4.13;;;2.20;;
6105;SDS011;3083;51.508;7.966;2022-09-01T15:04:37;4.00;;;2.40;;
6105;SDS011;3083;51.508;7.966;2022-09-01T15:07:03;5.33;;;1.90;;
6105;SDS011;3083;51.508;7.966;2022-09-01T15:09:30;4.90;;;2.50;;
6105;SDS011;3083;51.508;7.966;2022-09-01T15:11:58;2.93;;;1.83;;
6105;SDS011;3083;51.508;7.966;2022-09-01T15:14:25;6.23;;;2.00;;
6105;SDS011;3083;51.508;7.966;2022-09-01T15:16:54;4.40;;;2.07;;
6105;SDS011;3083;51.508;7.966;2022-09-01T15:19:21;4.80;;;2.23;;
6105;SDS011;3083;51.508;7.966;2022-09-01T15:21:48;4.90;;;1.97;;
6105;SDS011;3083;51.508;7.966;2022-09-01T15:24:15;4.60;;;1.90;;
6105;SDS011;3083;51.508;7.966;2022-09-01T15:26:42;5.00;;;2.20;;
6105;SDS011;3083;51.508;7.966;2022-09-01T15:29:10;3.37;;;1.87;;
6105;SDS011;3083;51.508;7.966;2022-09-01T15:31:38;5.90;;;2.30;;
6105;SDS011;3083;51.508;7.966;2022-09-01T15:34:09;4.73;;;1.93;;
6105;SDS011;3083;51.508;7.966;2022-09-01T15:36:38;3.70;;;2.20;;
6105;SDS011;3083;51.508;7.966;2022-09-01T15:39:08;5.60;;;2.10;;
6105;SDS011;3083;51.508;7.966;2022-09-01T15:41:36;8.83;;;2.20;;
6105;SDS011;3083;51.508;7.966;2022-09-01T15:44:04;3.73;;;2.07;;
6105;SDS011;3083;51.508;7.966;2022-09-01T15:46:32;7.40;;;2.30;;
6105;SDS011;3083;51.508;7.966;2022-09-01T15:48:59;4.03;;;2.00;;
6105;SDS011;3083;51.508;7.966;2022-09-01T15:51:30;4.73;;;2.17;;
6105;SDS011;3083;51.508;7.966;2022-09-01T15:53:59;3.97;;;2.20;;
6105;SDS011;3083;51.508;7.966;2022-09-01T15:56:27;3.83;;;1.90;;
6105;SDS011;3083;51.508;7.966;2022-09-01T15:58:56;5.53;;;2.43;;
6105;SDS011;3083;51.508;7.966;2022-09-01T16:01:24;3.10;;;2.10;;